Time;durP1;ratioP1;P1;durP2;ratioP2;P2;SDS_P1;SDS_P2;PMS_P1;PMS_P2;Temp;Humidity;BMP_temperature;BMP_pressure;BME280_temperature;BME280_humidity;BME280_pressure;Samples;Min_cycle;Max_cycle;Signal;HPM_P1;HPM_P2
2021/10/31 00:02:03;;;;;;;33.67;18.75;;;;;;;8.49;nan;100894.66;5082488;28;20071;-79
2021/10/31 00:04:29;;;;;;;26.25;17.52;;;;;;;8.47;nan;100896.75;5059860;28;20498;-79
2021/10/31 00:06:54;;;;;;;30.45;17.77;;;;;;;8.43;nan;100895.56;5066283;28;20039;-79
2021/10/31 00:09:20;;;;;;;31.63;18.23;;;;;;;8.51;nan;100897.09;5082496;28;20023;-79
2021/10/31 00:11:45;;;;;;;25.13;16.67;;;;;;;8.58;nan;100892.44;5069202;28;20031;-79
2021/10/31 00:14:11;;;;;;;28.40;16.85;;;;;;;8.64;nan;100896.88;5087004;28;20016;-79
2021/10/31 00:16:36;;;;;;;27.02;17.55;;;;;;;8.69;nan;100902.34;5065554;28;20024;-78
2021/10/31 00:19:02;;;;;;;31.25;18.50;;;;;;;8.73;nan;100901.63;5064298;28;20039;-79
2021/10/31 00:21:28;;;;;;;27.95;17.42;;;;;;;8.71;nan;100914.41;5068023;28;20028;-79
2021/10/31 00:23:54;;;;;;;29.50;18.02;;;;;;;8.77;nan;100921.50;5070687;28;20046;-79
2021/10/31 00:26:21;;;;;;;28.92;18.02;;;;;;;8.74;nan;100923.81;5067652;28;20363;-79
2021/10/31 00:28:46;;;;;;;27.80;17.83;;;;;;;8.74;nan;100924.63;5085719;28;20032;-79
2021/10/31 00:31:12;;;;;;;27.63;17.23;;;;;;;8.74;nan;100926.50;5084310;28;20073;-79
2021/10/31 00:33:38;;;;;;;24.38;16.25;;;;;;;8.74;nan;100923.81;5085956;28;20099;-79
2021/10/31 00:36:04;;;;;;;28.23;19.42;;;;;;;8.76;nan;100922.53;5086415;28;20081;-79
2021/10/31 00:38:30;;;;;;;30.45;17.92;;;;;;;8.73;nan;100925.69;5086671;28;20119;-79
2021/10/31 00:40:56;;;;;;;32.47;18.92;;;;;;;8.71;nan;100930.44;5065379;28;20114;-78
2021/10/31 00:43:22;;;;;;;25.23;16.42;;;;;;;8.75;nan;100934.28;5061772;28;20032;-78
2021/10/31 00:45:49;;;;;;;27.48;16.92;;;;;;;8.80;nan;100930.94;5068441;28;20050;-79
2021/10/31 00:48:15;;;;;;;28.10;17.60;;;;;;;8.76;nan;100927.88;5068704;28;20021;-79
2021/10/31 00:50:42;;;;;;;28.13;17.15;;;;;;;8.74;nan;100929.97;5066049;28;20030;-78
2021/10/31 00:53:08;;;;;;;30.30;15.82;;;;;;;8.74;nan;100935.31;5068926;28;20023;-79
2021/10/31 00:55:33;;;;;;;28.15;17.65;;;;;;;8.82;nan;100941.38;5068134;28;20448;-79
2021/10/31 00:57:59;;;;;;;31.50;18.67;;;;;;;8.77;nan;100934.84;5066179;28;20447;-79
2021/10/31 01:00:26;;;;;;;30.33;18.88;;;;;;;8.78;nan;100928.47;5066687;28;20023;-79
2021/10/31 01:02:51;;;;;;;30.17;18.40;;;;;;;8.75;nan;100923.59;5068692;28;20077;-79
2021/10/31 01:05:21;;;;;;;30.52;18.25;;;;;;;8.72;nan;100932.06;5084291;28;20021;-79
2021/10/31 01:08:14;;;;;;;31.30;19.55;;;;;;;8.68;nan;100925.56;5085170;28;20103;-79
2021/10/31 01:10:56;;;;;;;28.42;18.70;;;;;;;8.66;nan;100930.34;5075199;28;20024;-78
2021/10/31 01:13:37;;;;;;;31.63;19.20;;;;;;;8.62;nan;100925.69;5065070;28;20403;-79
2021/10/31 01:16:21;;;;;;;28.75;18.23;;;;;;;8.62;nan;100933.72;5067737;28;20122;-78
2021/10/31 01:19:08;;;;;;;32.40;18.98;;;;;;;8.63;nan;100930.00;5062550;28;20077;-79
2021/10/31 01:22:16;;;;;;;29.05;18.27;;;;;;;8.63;nan;100922.78;5079624;28;20031;-78
2021/10/31 01:24:53;;;;;;;30.23;17.77;;;;;;;8.61;nan;100927.53;5060944;28;20856;-78
2021/10/31 01:27:22;;;;;;;28.10;18.40;;;;;;;8.66;nan;100929.53;5068491;28;20399;-79
2021/10/31 01:29:56;;;;;;;29.20;17.77;;;;;;;8.61;nan;100932.06;5085536;28;20028;-78
2021/10/31 01:32:29;;;;;;;29.73;18.88;;;;;;;8.60;nan;100933.91;5068636;28;20075;-78
2021/10/31 01:35:13;;;;;;;29.65;18.33;;;;;;;8.63;nan;100935.34;5081750;28;20123;-78
2021/10/31 01:37:46;;;;;;;32.47;18.83;;;;;;;8.60;nan;100933.91;5064148;28;20068;-79
2021/10/31 01:40:27;;;;;;;28.85;18.73;;;;;;;8.55;nan;100941.81;5067598;28;20031;-78
2021/10/31 01:43:27;;;;;;;28.30;17.67;;;;;;;8.52;nan;100939.59;5065030;28;20035;-78
2021/10/31 01:46:11;;;;;;;29.10;18.08;;;;;;;8.45;nan;100949.56;5063908;28;20031;-78
2021/10/31 01:48:52;;;;;;;31.17;19.88;;;;;;;8.36;nan;100943.75;5081737;28;20036;-78
2021/10/31 01:51:22;;;;;;;32.85;19.85;;;;;;;8.27;nan;100949.63;5064752;28;20847;-78
2021/10/31 01:53:56;;;;;;;31.27;18.70;;;;;;;8.21;nan;100945.97;5062336;28;20863;-78
2021/10/31 01:56:23;;;;;;;35.35;18.77;;;;;;;8.15;nan;100952.25;5086852;28;20501;-78
2021/10/31 01:59:00;;;;;;;31.45;18.98;;;;;;;8.20;nan;100952.38;5066200;28;20043;-79
2021/10/31 02:01:29;;;;;;;31.02;19.65;;;;;;;8.28;nan;100954.72;5064131;28;20032;-79
2021/10/31 02:03:59;;;;;;;28.88;18.20;;;;;;;8.30;nan;100952.63;5086738;28;20478;-79
2021/10/31 02:06:25;;;;;;;30.52;19.00;;;;;;;8.26;nan;100958.63;5073374;28;20541;-79
2021/10/31 02:08:52;;;;;;;31.27;18.33;;;;;;;8.28;nan;100952.06;5070641;28;20024;-79
2021/10/31 02:11:20;;;;;;;27.17;17.48;;;;;;;8.30;nan;100947.31;5072602;28;20024;-79
2021/10/31 02:13:49;;;;;;;31.17;20.00;;;;;;;8.41;nan;100943.03;5072953;28;20024;-78
2021/10/31 02:16:16;;;;;;;31.98;19.45;;;;;;;8.38;nan;100947.00;5067279;28;20039;-78
2021/10/31 02:18:44;;;;;;;32.13;19.52;;;;;;;8.37;nan;100949.91;5069592;28;20035;-78
2021/10/31 02:21:14;;;;;;;30.42;19.60;;;;;;;8.44;nan;100950.63;5089368;28;20024;-79
2021/10/31 02:23:40;;;;;;;35.85;19.42;;;;;;;8.41;nan;100951.06;5072103;28;20114;-79
2021/10/31 02:26:05;;;;;;;33.85;19.80;;;;;;;8.41;nan;100951.06;5070545;28;20166;-78
2021/10/31 02:28:30;;;;;;;30.23;18.65;;;;;;;8.45;nan;100946.91;5071867;28;20039;-79
2021/10/31 02:30:57;;;;;;;26.83;17.98;;;;;;;8.38;nan;100948.84;5085684;28;20031;-78
2021/10/31 02:33:22;;;;;;;28.65;18.77;;;;;;;8.37;nan;100960.56;5067772;28;20028;-78
2021/10/31 02:35:48;;;;;;;28.38;18.30;;;;;;;8.32;nan;100969.25;5070146;28;20024;-79
2021/10/31 02:38:13;;;;;;;27.83;18.80;;;;;;;8.33;nan;100970.06;5067662;28;20043;-79
2021/10/31 02:40:39;;;;;;;28.50;18.40;;;;;;;8.30;nan;100966.00;5070684;28;20078;-79
2021/10/31 02:43:05;;;;;;;30.75;19.27;;;;;;;8.22;nan;100968.16;5072967;28;20032;-79
2021/10/31 02:45:31;;;;;;;33.38;19.52;;;;;;;8.22;nan;100963.63;5070946;28;20047;-79
2021/10/31 02:48:00;;;;;;;31.45;19.33;;;;;;;8.25;nan;100973.84;5069032;28;20020;-78
2021/10/31 02:50:37;;;;;;;33.90;20.88;;;;;;;8.17;nan;100960.81;5066586;28;20622;-78
2021/10/31 02:53:19;;;;;;;30.42;19.23;;;;;;;8.12;nan;100969.53;5070409;28;20015;-79
2021/10/31 02:55:57;;;;;;;29.00;18.58;;;;;;;8.18;nan;100970.47;5069294;28;20023;-79
2021/10/31 02:58:40;;;;;;;31.65;20.75;;;;;;;8.11;nan;100967.09;5089392;28;20035;-78
2021/10/31 03:01:07;;;;;;;33.22;21.23;;;;;;;8.09;nan;100979.84;5065663;28;20027;-78
2021/10/31 03:03:34;;;;;;;32.75;21.63;;;;;;;8.00;nan;100987.31;5069008;28;20111;-79
2021/10/31 03:06:00;;;;;;;32.22;20.63;;;;;;;8.00;nan;100998.00;5091774;28;20027;-78
2021/10/31 03:08:27;;;;;;;32.88;20.00;;;;;;;7.95;nan;100992.53;5086832;28;20059;-79
2021/10/31 03:10:55;;;;;;;34.25;20.63;;;;;;;7.94;nan;100998.91;5066818;28;20028;-78
2021/10/31 03:13:22;;;;;;;33.00;20.60;;;;;;;7.93;nan;101002.63;5086121;28;20107;-78
2021/10/31 03:15:48;;;;;;;33.47;20.10;;;;;;;7.89;nan;101007.56;5087208;28;20055;-79
2021/10/31 03:18:13;;;;;;;35.60;21.42;;;;;;;7.91;nan;101004.69;5067440;28;20070;-78
2021/10/31 03:20:39;;;;;;;34.22;20.67;;;;;;;7.95;nan;101000.53;5067226;28;20486;-78
2021/10/31 03:23:05;;;;;;;33.33;20.83;;;;;;;7.96;nan;100999.50;5068975;28;20055;-78
2021/10/31 03:25:30;;;;;;;34.78;21.42;;;;;;;7.98;nan;101009.94;5068593;28;20118;-79
2021/10/31 03:27:56;;;;;;;29.33;19.23;;;;;;;7.96;nan;101017.34;5060320;28;20020;-78
2021/10/31 03:30:21;;;;;;;30.88;20.02;;;;;;;7.96;nan;101012.84;5069042;28;20510;-78
2021/10/31 03:32:48;;;;;;;33.83;20.92;;;;;;;7.91;nan;101010.03;5089424;28;20054;-78
2021/10/31 03:35:14;;;;;;;32.67;20.77;;;;;;;7.85;nan;101010.91;5084093;28;20044;-79
2021/10/31 03:37:40;;;;;;;31.67;19.65;;;;;;;7.81;nan;101007.88;5087616;28;20019;-78
2021/10/31 03:40:06;;;;;;;31.33;20.63;;;;;;;7.78;nan;101000.31;5068441;28;20497;-78
2021/10/31 03:42:32;;;;;;;36.42;21.23;;;;;;;7.78;nan;101000.31;5070835;28;20028;-78
2021/10/31 03:44:58;;;;;;;33.40;20.73;;;;;;;7.75;nan;101010.63;5088240;28;20030;-79
2021/10/31 03:47:26;;;;;;;30.92;20.02;;;;;;;7.75;nan;101010.63;5069795;28;20036;-79
2021/10/31 03:49:51;;;;;;;32.40;20.65;;;;;;;7.71;nan;101017.44;5070739;28;20111;-79
2021/10/31 03:52:17;;;;;;;39.88;21.13;;;;;;;7.63;nan;101021.22;5087873;28;20103;-79
2021/10/31 03:54:42;;;;;;;34.50;19.55;;;;;;;7.50;nan;101024.00;5069523;28;20533;-79
2021/10/31 03:57:08;;;;;;;31.98;20.05;;;;;;;7.44;nan;101023.06;5070287;28;20023;-79
2021/10/31 03:59:34;;;;;;;32.95;20.48;;;;;;;7.44;nan;101020.38;5063549;28;20024;-79
2021/10/31 04:02:00;;;;;;;39.08;22.73;;;;;;;7.30;nan;101018.88;5071242;28;20039;-79
2021/10/31 04:04:25;;;;;;;30.45;19.60;;;;;;;7.24;nan;101017.09;5069917;28;20020;-79
2021/10/31 04:06:51;;;;;;;34.85;22.38;;;;;;;7.26;nan;101023.03;5070995;28;20020;-80
2021/10/31 04:09:16;;;;;;;33.92;21.20;;;;;;;7.28;nan;101015.63;5070348;28;20031;-80
2021/10/31 04:11:42;;;;;;;35.05;21.60;;;;;;;7.30;nan;101018.88;5072045;28;20027;-80
2021/10/31 04:14:07;;;;;;;38.22;21.92;;;;;;;7.34;nan;101014.72;5066503;28;20024;-80
2021/10/31 04:16:33;;;;;;;34.88;20.67;;;;;;;7.35;nan;101015.53;5064032;28;20046;-80
2021/10/31 04:18:59;;;;;;;33.03;20.63;;;;;;;7.36;nan;101019.84;5070300;28;20042;-80
2021/10/31 04:21:24;;;;;;;33.15;20.60;;;;;;;7.37;nan;101018.84;5070059;28;20183;-80
2021/10/31 04:23:50;;;;;;;32.15;20.63;;;;;;;7.38;nan;101020.47;5069026;28;20024;-80
2021/10/31 04:26:15;;;;;;;32.80;21.38;;;;;;;7.35;nan;101023.53;5084392;28;20024;-80
2021/10/31 04:28:41;;;;;;;35.00;21.38;;;;;;;7.38;nan;101020.47;5083867;28;20029;-80
2021/10/31 04:31:06;;;;;;;27.90;18.48;;;;;;;7.39;nan;101024.75;5070710;28;20043;-80
2021/10/31 04:33:32;;;;;;;35.35;21.25;;;;;;;7.38;nan;101034.59;5065799;28;20047;-79
2021/10/31 04:35:57;;;;;;;37.25;22.17;;;;;;;7.38;nan;101047.13;5075813;22;20598;-83
2021/10/31 04:38:27;;;;;;;34.45;20.98;;;;;;;7.39;nan;101049.56;5099990;28;20032;-84
2021/10/31 04:40:53;;;;;;;34.63;20.95;;;;;;;7.34;nan;101037.91;5079887;28;20027;-84
2021/10/31 04:43:22;;;;;;;31.98;20.15;;;;;;;7.35;nan;101037.69;5094498;28;20046;-84
2021/10/31 04:45:48;;;;;;;33.17;20.08;;;;;;;7.38;nan;101041.78;5071889;28;20505;-84
2021/10/31 04:48:14;;;;;;;32.35;20.60;;;;;;;7.38;nan;101045.28;5084642;28;20024;-84
2021/10/31 04:50:40;;;;;;;32.55;20.67;;;;;;;7.32;nan;101061.31;5074689;28;20028;-84
2021/10/31 04:53:07;;;;;;;31.88;20.52;;;;;;;7.33;nan;101071.75;5085911;28;20015;-83
2021/10/31 04:55:33;;;;;;;35.25;20.10;;;;;;;7.34;nan;101062.72;5080410;28;20027;-84
2021/10/31 04:57:59;;;;;;;44.47;21.95;;;;;;;7.36;nan;101049.16;5071726;28;20020;-84
2021/10/31 05:00:25;;;;;;;32.10;19.77;;;;;;;7.38;nan;101058.59;5097818;28;20024;-84
2021/10/31 05:02:51;;;;;;;32.60;20.90;;;;;;;7.35;nan;101051.00;5091771;28;20034;-84
2021/10/31 05:05:21;;;;;;;37.30;21.50;;;;;;;7.33;nan;101060.28;5074618;28;20424;-84
2021/10/31 05:07:48;;;;;;;35.08;22.55;;;;;;;7.35;nan;101053.69;5082705;28;20026;-84
2021/10/31 05:10:14;;;;;;;37.60;22.08;;;;;;;7.26;nan;101045.16;5094808;28;20020;-84
2021/10/31 05:12:40;;;;;;;31.92;19.77;;;;;;;7.20;nan;101045.22;5076793;28;20368;-84
2021/10/31 05:15:06;;;;;;;35.08;21.88;;;;;;;7.20;nan;101045.22;5080365;28;20039;-84
2021/10/31 05:17:32;;;;;;;35.78;21.40;;;;;;;7.17;nan;101045.66;5092350;28;20404;-84
2021/10/31 05:19:58;;;;;;;34.45;20.70;;;;;;;7.11;nan;101049.19;5081295;28;20028;-84
2021/10/31 05:22:23;;;;;;;33.17;20.42;;;;;;;7.08;nan;101054.97;5076553;28;20028;-84
2021/10/31 05:24:49;;;;;;;34.67;20.90;;;;;;;7.07;nan;101062.13;5080263;28;20070;-84
2021/10/31 05:27:14;;;;;;;34.38;20.95;;;;;;;7.11;nan;101063.31;5080692;28;20020;-84
2021/10/31 05:29:40;;;;;;;34.67;20.63;;;;;;;7.13;nan;101066.59;5075470;28;20055;-83
2021/10/31 05:32:05;;;;;;;34.88;21.17;;;;;;;7.15;nan;101069.03;5081804;28;20036;-84
2021/10/31 05:34:31;;;;;;;33.85;21.10;;;;;;;7.12;nan;101075.63;5078099;28;20532;-84
2021/10/31 05:36:56;;;;;;;35.40;21.15;;;;;;;7.15;nan;101082.34;5080980;28;20028;-84
2021/10/31 05:39:22;;;;;;;33.65;20.92;;;;;;;7.15;nan;101079.69;5080730;28;20447;-84
2021/10/31 05:41:47;;;;;;;33.72;20.45;;;;;;;7.12;nan;101082.78;5075626;28;20081;-84
2021/10/31 05:44:13;;;;;;;32.10;19.83;;;;;;;7.15;nan;101077.84;5079812;28;20024;-84
2021/10/31 05:46:38;;;;;;;33.72;20.90;;;;;;;7.19;nan;101080.91;5085813;28;20027;-84
2021/10/31 05:49:04;;;;;;;34.05;19.95;;;;;;;7.21;nan;101078.84;5096468;28;20019;-84
2021/10/31 05:51:30;;;;;;;31.92;20.38;;;;;;;7.21;nan;101090.31;5086803;28;20114;-84
2021/10/31 05:53:56;;;;;;;33.58;21.17;;;;;;;7.19;nan;101094.22;5103018;28;20022;-84
2021/10/31 05:56:22;;;;;;;33.47;21.35;;;;;;;7.15;nan;101090.34;5080369;28;20123;-84
2021/10/31 05:58:48;;;;;;;33.72;20.85;;;;;;;7.11;nan;101097.97;5084485;28;20028;-84
2021/10/31 06:01:13;;;;;;;35.15;20.17;;;;;;;7.11;nan;101086.50;5087109;28;20095;-84
2021/10/31 06:03:39;;;;;;;34.90;20.98;;;;;;;7.04;nan;101099.88;5100082;28;20032;-84
2021/10/31 06:06:04;;;;;;;32.70;20.50;;;;;;;7.01;nan;101102.97;5078981;28;20028;-83
2021/10/31 06:08:30;;;;;;;38.45;21.65;;;;;;;6.98;nan;101106.84;5096127;28;20110;-84
2021/10/31 06:10:56;;;;;;;34.85;20.95;;;;;;;6.92;nan;101113.06;5085624;28;20019;-83
2021/10/31 06:13:21;;;;;;;33.55;21.38;;;;;;;6.88;nan;101111.03;5095805;28;20027;-83
2021/10/31 06:15:48;;;;;;;33.92;20.10;;;;;;;6.86;nan;101110.44;5078281;28;20027;-84
2021/10/31 06:18:17;;;;;;;36.38;21.42;;;;;;;6.79;nan;101118.47;5090975;28;20037;-84
2021/10/31 06:20:44;;;;;;;39.22;22.42;;;;;;;6.89;nan;101124.16;5094166;28;20703;-83
2021/10/31 06:23:09;;;;;;;33.22;20.13;;;;;;;7.03;nan;101124.88;5083320;28;20032;-84
2021/10/31 06:25:35;;;;;;;36.65;21.42;;;;;;;7.17;nan;101121.06;5082966;28;20020;-84
2021/10/31 06:28:01;;;;;;;32.03;19.83;;;;;;;7.34;nan;101121.34;5104715;28;20024;-83
2021/10/31 06:30:26;;;;;;;33.75;20.83;;;;;;;7.47;nan;101123.09;5093368;28;20088;-84
2021/10/31 06:32:52;;;;;;;34.42;20.50;;;;;;;7.56;nan;101130.63;5100978;28;20094;-83
2021/10/31 06:35:17;;;;;;;34.33;19.83;;;;;;;7.68;nan;101129.88;5078599;28;20028;-83
2021/10/31 06:37:43;;;;;;;34.20;20.95;;;;;;;7.82;nan;101139.41;5101741;28;20035;-84
2021/10/31 06:40:10;;;;;;;34.92;20.20;;;;;;;7.95;nan;101138.47;5076060;28;20166;-84
2021/10/31 06:42:35;;;;;;;33.05;21.15;;;;;;;8.08;nan;101138.34;5082542;28;20028;-84
2021/10/31 06:45:01;;;;;;;30.70;19.63;;;;;;;8.22;nan;101144.31;5082816;28;20031;-84
2021/10/31 06:47:27;;;;;;;33.20;19.27;;;;;;;8.36;nan;101145.84;5075021;28;20028;-84
2021/10/31 06:49:52;;;;;;;31.00;19.95;;;;;;;8.46;nan;101138.94;5083985;28;20081;-83
2021/10/31 06:52:19;;;;;;;32.20;19.70;;;;;;;8.60;nan;101139.56;5079318;28;20698;-84
2021/10/31 06:54:44;;;;;;;29.35;19.30;;;;;;;8.70;nan;101145.19;5080230;28;20077;-83
2021/10/31 06:57:10;;;;;;;30.05;19.27;;;;;;;8.79;nan;101146.50;5084192;28;20107;-84
2021/10/31 06:59:36;;;;;;;32.53;19.13;;;;;;;8.93;nan;101149.81;5079623;28;20031;-84
2021/10/31 07:02:02;;;;;;;29.08;17.77;;;;;;;9.09;nan;101145.69;5079801;28;20019;-82
2021/10/31 07:04:29;;;;;;;33.65;18.88;;;;;;;9.19;nan;101145.97;5075737;28;20035;-82
2021/10/31 07:06:55;;;;;;;31.35;18.92;;;;;;;9.19;nan;101145.97;5076920;28;20035;-82
2021/10/31 07:09:20;;;;;;;34.42;18.60;;;;;;;9.12;nan;101153.25;5094159;28;20032;-82
2021/10/31 07:11:46;;;;;;;42.20;20.27;;;;;;;9.17;nan;101158.75;5084874;28;20024;-82
2021/10/31 07:14:12;;;;;;;28.98;19.23;;;;;;;9.28;nan;101160.59;5085190;28;20020;-82
2021/10/31 07:16:37;;;;;;;28.35;18.65;;;;;;;9.41;nan;101164.13;5084714;28;20028;-82
2021/10/31 07:19:03;;;;;;;33.17;19.63;;;;;;;9.56;nan;101172.53;5100567;28;20027;-82
2021/10/31 07:21:29;;;;;;;28.60;18.92;;;;;;;9.70;nan;101173.94;5093788;28;20625;-82
2021/10/31 07:23:55;;;;;;;29.33;17.92;;;;;;;9.86;nan;101185.78;5093727;28;20080;-82
2021/10/31 07:26:21;;;;;;;26.75;17.88;;;;;;;10.03;nan;101185.91;5088288;28;20024;-82
2021/10/31 07:28:46;;;;;;;29.55;18.00;;;;;;;10.20;nan;101186.84;5084169;28;20054;-82
2021/10/31 07:31:13;;;;;;;28.88;18.63;;;;;;;10.34;nan;101180.22;5078942;28;20370;-82
2021/10/31 07:33:39;;;;;;;26.45;17.60;;;;;;;10.48;nan;101184.28;5100244;28;20038;-82
2021/10/31 07:36:04;;;;;;;26.50;17.80;;;;;;;10.65;nan;101183.53;5083718;28;20038;-83
2021/10/31 07:38:30;;;;;;;26.92;17.15;;;;;;;10.84;nan;101187.66;5088544;28;20020;-83
2021/10/31 07:40:55;;;;;;;24.73;16.30;;;;;;;11.06;nan;101188.59;5094901;28;20444;-83
2021/10/31 07:43:21;;;;;;;27.33;17.67;;;;;;;11.22;nan;101191.56;5084283;28;20035;-84
2021/10/31 07:45:46;;;;;;;27.48;17.27;;;;;;;11.33;nan;101188.03;5090138;28;20019;-83
2021/10/31 07:48:12;;;;;;;25.52;17.23;;;;;;;11.46;nan;101190.38;5073256;28;20035;-83
2021/10/31 07:50:38;;;;;;;26.08;17.67;;;;;;;11.62;nan;101186.88;5078625;28;20592;-83
2021/10/31 07:53:09;;;;;;;26.63;16.85;;;;;;;11.73;nan;101190.56;5076147;28;20024;-83
2021/10/31 07:55:36;;;;;;;26.40;17.42;;;;;;;11.81;nan;101179.44;5099763;28;20024;-84
2021/10/31 07:58:04;;;;;;;27.17;17.25;;;;;;;11.97;nan;101173.22;5099108;28;20714;-84
2021/10/31 08:00:31;;;;;;;27.58;17.05;;;;;;;12.16;nan;101181.00;5080688;28;20054;-84
2021/10/31 08:02:56;;;;;;;27.98;17.42;;;;;;;12.27;nan;101175.53;5097594;28;20487;-83
2021/10/31 08:05:23;;;;;;;25.92;15.63;;;;;;;12.38;nan;101179.94;5081866;22;20035;-86
2021/10/31 08:07:49;;;;;;;27.23;17.13;;;;;;;12.60;nan;101171.91;5066086;28;20064;-84
2021/10/31 08:10:15;;;;;;;22.40;16.63;;;;;;;12.76;nan;101178.28;5051062;28;20063;-83
2021/10/31 08:12:41;;;;;;;26.48;17.08;;;;;;;12.92;nan;101184.63;5049777;28;20028;-84
2021/10/31 08:15:07;;;;;;;27.88;17.25;;;;;;;13.05;nan;101172.66;5067422;28;20497;-83
2021/10/31 08:17:32;;;;;;;26.92;17.52;;;;;;;13.22;nan;101184.16;5034399;28;20118;-84
2021/10/31 08:19:58;;;;;;;24.23;15.57;;;;;;;13.33;nan;101185.88;5042170;28;20025;-83
2021/10/31 08:22:23;;;;;;;29.50;17.90;;;;;;;13.45;nan;101183.81;5040017;28;20755;-84
2021/10/31 08:24:49;;;;;;;24.50;16.75;;;;;;;13.61;nan;101174.78;5058058;28;20033;-84
2021/10/31 08:27:15;;;;;;;26.73;17.27;;;;;;;13.63;nan;101171.03;5036799;28;20732;-84
2021/10/31 08:29:42;;;;;;;25.70;16.70;;;;;;;13.47;nan;101170.94;5034243;28;20020;-83
2021/10/31 08:32:08;;;;;;;22.75;15.45;;;;;;;13.07;nan;101165.13;5037962;28;20016;-83
2021/10/31 08:34:33;;;;;;;22.33;13.68;;;;;;;12.79;nan;101174.28;5050434;28;20025;-82
2021/10/31 08:36:59;;;;;;;19.60;13.73;;;;;;;12.58;nan;101170.53;5036384;28;20127;-84
2021/10/31 08:39:24;;;;;;;23.38;14.20;;;;;;;12.52;nan;101179.59;5042713;28;20029;-79
2021/10/31 08:41:50;;;;;;;21.75;13.48;;;;;;;12.65;nan;101169.28;5045667;28;20147;-79
2021/10/31 08:44:16;;;;;;;25.95;13.63;;;;;;;12.71;nan;101165.56;5044127;28;20052;-79
2021/10/31 08:46:41;;;;;;;24.80;15.50;;;;;;;12.80;nan;101163.25;5025371;28;20036;-80
2021/10/31 08:49:07;;;;;;;22.13;14.68;;;;;;;12.93;nan;101165.56;5045180;28;20028;-79
2021/10/31 08:51:32;;;;;;;23.30;15.30;;;;;;;13.09;nan;101168.38;5032332;28;20037;-79
2021/10/31 08:53:59;;;;;;;21.20;14.35;;;;;;;13.30;nan;101165.69;5029550;28;21953;-79
2021/10/31 08:56:45;;;;;;;21.13;13.02;;;;;;;13.25;nan;101162.91;5032839;28;20648;-80
2021/10/31 08:59:10;;;;;;;23.80;14.48;;;;;;;13.51;nan;101155.06;5055150;28;20081;-83
2021/10/31 09:01:36;;;;;;;21.52;13.30;;;;;;;13.43;nan;101158.22;5037967;28;20165;-84
2021/10/31 09:04:02;;;;;;;20.80;13.68;;;;;;;13.67;nan;101162.19;5050881;28;20025;-83
2021/10/31 09:06:28;;;;;;;23.10;14.45;;;;;;;13.59;nan;101155.41;5033887;28;20048;-84
2021/10/31 09:08:54;;;;;;;20.92;13.43;;;;;;;13.47;nan;101159.34;5032764;28;20021;-82
2021/10/31 09:11:20;;;;;;;20.17;14.23;;;;;;;13.57;nan;101157.53;5031165;28;20087;-83
2021/10/31 09:13:46;;;;;;;21.45;13.20;;;;;;;13.56;nan;101155.09;5034554;28;20025;-83
2021/10/31 09:17:00;;;;;;;;;;;;;;;;;;;;;
2021/10/31 09:19:26;;;;;;;22.45;12.70;;;;;;;13.49;nan;101146.44;5028688;28;20402;-83
2021/10/31 09:21:52;;;;;;;23.98;13.57;;;;;;;13.53;nan;101145.66;5050947;28;20093;-83
2021/10/31 09:24:17;;;;;;;21.67;13.75;;;;;;;13.63;nan;101154.88;5036587;28;20352;-83
2021/10/31 09:26:43;;;;;;;18.25;13.23;;;;;;;13.61;nan;101145.19;5034363;28;20037;-83
2021/10/31 09:29:08;;;;;;;23.48;13.73;;;;;;;13.60;nan;101142.75;5028824;28;20025;-84
2021/10/31 09:31:34;;;;;;;20.13;13.00;;;;;;;13.72;nan;101134.50;5034414;28;20043;-83
2021/10/31 09:34:00;;;;;;;20.63;13.48;;;;;;;13.68;nan;101139.59;5034540;28;20089;-83
2021/10/31 09:36:26;;;;;;;17.65;12.02;;;;;;;13.90;nan;101159.13;5026884;28;20097;-84
2021/10/31 09:38:53;;;;;;;17.90;12.00;;;;;;;13.97;nan;101148.09;5031417;28;20036;-84
2021/10/31 09:41:19;;;;;;;18.67;13.02;;;;;;;14.15;nan;101154.94;5044362;28;20021;-83
2021/10/31 09:43:50;;;;;;;19.58;12.30;;;;;;;14.18;nan;101154.41;5032304;28;20060;-83
2021/10/31 09:46:17;;;;;;;19.83;13.07;;;;;;;14.21;nan;101156.59;5030509;28;20040;-84
2021/10/31 09:48:43;;;;;;;18.80;12.45;;;;;;;14.44;nan;101158.09;5041456;28;20052;-84
2021/10/31 09:51:09;;;;;;;20.40;13.18;;;;;;;14.80;nan;101162.50;5028514;28;20041;-84
2021/10/31 09:53:35;;;;;;;17.45;12.43;;;;;;;15.01;nan;101173.34;5028322;28;20037;-84
2021/10/31 09:56:02;;;;;;;18.42;12.40;;;;;;;15.25;nan;101173.66;5043617;28;20021;-84
2021/10/31 09:58:40;;;;;;;17.25;11.70;;;;;;;15.28;nan;101173.13;5023953;28;20136;-85
2021/10/31 10:02:38;;;;;;;16.63;11.38;;;;;;;15.37;nan;101176.91;5029986;28;20040;-85
2021/10/31 10:04:37;;;;;;;18.65;12.32;;;;;;;15.50;nan;101170.97;4995167;28;20045;-85
2021/10/31 10:07:06;;;;;;;17.10;11.43;;;;;;;15.59;nan;101163.97;5027202;28;20037;-85
2021/10/31 10:09:33;;;;;;;15.82;12.10;;;;;;;15.78;nan;101158.81;5026782;28;20087;-84
2021/10/31 10:12:12;;;;;;;20.38;12.68;;;;;;;15.92;nan;101161.75;5024661;28;20065;-84
2021/10/31 10:14:38;;;;;;;16.40;11.02;;;;;;;16.13;nan;101152.53;5024370;28;20060;-83
2021/10/31 10:17:06;;;;;;;16.02;11.13;;;;;;;15.77;nan;101159.88;5021596;28;20037;-83
2021/10/31 10:19:35;;;;;;;14.82;9.45;;;;;;;15.81;nan;101155.59;5028514;28;20029;-84
2021/10/31 10:22:06;;;;;;;15.90;11.13;;;;;;;16.00;nan;101153.94;5047458;28;20025;-84
2021/10/31 10:24:35;;;;;;;17.77;11.27;;;;;;;16.25;nan;101150.31;5030227;28;20032;-84
2021/10/31 10:27:04;;;;;;;14.95;10.77;;;;;;;16.51;nan;101159.13;5032345;28;20044;-84
2021/10/31 10:29:35;;;;;;;17.85;11.15;;;;;;;16.65;nan;101153.13;5041029;28;20017;-86
2021/10/31 10:32:06;;;;;;;15.57;11.00;;;;;;;16.77;nan;101146.34;5058897;28;20029;-86
2021/10/31 10:34:45;;;;;;;16.33;11.00;;;;;;;16.96;nan;101138.38;5042320;28;20045;-85
2021/10/31 10:37:24;;;;;;;16.67;10.10;;;;;;;16.71;nan;101142.03;5028579;28;20034;-84
2021/10/31 10:40:00;;;;;;;13.65;9.70;;;;;;;16.63;nan;101140.69;5001607;28;20476;-85
2021/10/31 10:42:33;;;;;;;15.30;10.45;;;;;;;16.91;nan;101141.91;5006089;28;20038;-85
2021/10/31 10:45:08;;;;;;;17.38;10.93;;;;;;;17.11;nan;101129.34;5035641;28;20445;-84
2021/10/31 10:47:56;;;;;;;18.80;10.82;;;;;;;17.29;nan;101122.41;5027320;28;20172;-84
2021/10/31 10:50:23;;;;;;;15.07;10.63;;;;;;;17.62;nan;101108.03;5006611;28;20060;-85
2021/10/31 10:52:49;;;;;;;16.60;11.18;;;;;;;17.54;nan;101116.75;5031688;28;20040;-84
2021/10/31 10:55:30;;;;;;;17.80;11.10;;;;;;;17.75;nan;101114.69;5034636;28;20483;-85
2021/10/31 10:57:59;;;;;;;13.40;10.30;;;;;;;18.10;nan;101106.16;5029405;28;20051;-84
2021/10/31 11:00:34;;;;;;;15.13;10.40;;;;;;;18.35;nan;101102.34;5017469;28;20033;-85
2021/10/31 11:03:07;;;;;;;;;;;;;;;18.15;nan;101096.38;5025095;28;20025;-84
2021/10/31 11:05:35;;;;;;;14.52;10.70;;;;;;;18.50;nan;101089.69;5027328;28;20255;-85
2021/10/31 11:08:01;;;;;;;13.32;10.23;;;;;;;19.96;nan;101082.91;5050005;28;20021;-85
2021/10/31 11:10:29;;;;;;;14.77;10.32;;;;;;;21.30;nan;101085.88;5033879;28;20084;-85
2021/10/31 11:13:00;;;;;;;15.50;11.10;;;;;;;22.42;nan;101074.59;5029143;28;20036;-84
2021/10/31 11:15:31;;;;;;;12.38;9.68;;;;;;;23.32;nan;101068.44;5033241;28;20063;-86
2021/10/31 11:17:59;;;;;;;13.57;9.23;;;;;;;24.63;nan;101068.28;5036795;28;20111;-86
2021/10/31 11:20:30;;;;;;;11.68;8.82;;;;;;;25.88;nan;101069.91;5051100;28;20281;-86
2021/10/31 11:22:58;;;;;;;12.07;9.32;;;;;;;24.84;nan;101057.28;5047198;28;20055;-86
2021/10/31 11:25:25;;;;;;;10.85;9.20;;;;;;;26.29;nan;101054.28;5032711;28;20040;-84
2021/10/31 11:27:53;;;;;;;11.75;8.63;;;;;;;25.06;nan;101041.63;5041483;28;20038;-85
2021/10/31 11:30:20;;;;;;;12.23;9.52;;;;;;;26.10;nan;101047.44;5026617;28;20497;-85
2021/10/31 11:32:48;;;;;;;14.90;9.57;;;;;;;27.39;nan;101047.19;5031043;28;20062;-84
2021/10/31 11:35:16;;;;;;;12.48;8.95;;;;;;;26.12;nan;101049.84;5031777;28;20025;-85
2021/10/31 11:38:01;;;;;;;11.90;9.65;;;;;;;24.75;nan;101037.38;5027988;28;20044;-85